sensor_id;sensor_type;location;lat;lon;timestamp;P1;durP1;ratioP1;P2;durP2;ratioP2
83282;SDS011;73190;50.780;5.658;2024-01-10T00:02:26;18.50;;;7.30;;
83282;SDS011;73190;50.780;5.658;2024-01-10T00:04:54;13.35;;;6.67;;
83282;SDS011;73190;50.780;5.658;2024-01-10T00:07:21;14.98;;;7.35;;
83282;SDS011;73190;50.780;5.658;2024-01-10T00:09:49;14.75;;;6.92;;
83282;SDS011;73190;50.780;5.658;2024-01-10T00:12:17;14.35;;;6.53;;
83282;SDS011;73190;50.780;5.658;2024-01-10T00:14:45;15.25;;;7.00;;
83282;SDS011;73190;50.780;5.658;2024-01-10T00:17:13;15.20;;;7.45;;
83282;SDS011;73190;50.780;5.658;2024-01-10T00:19:40;13.38;;;6.58;;
83282;SDS011;73190;50.780;5.658;2024-01-10T00:22:08;13.70;;;7.28;;
83282;SDS011;73190;50.780;5.658;2024-01-10T00:24:35;12.58;;;6.78;;
83282;SDS011;73190;50.780;5.658;2024-01-10T00:27:03;14.75;;;6.90;;
83282;SDS011;73190;50.780;5.658;2024-01-10T00:29:31;15.60;;;6.97;;
83282;SDS011;73190;50.780;5.658;2024-01-10T00:31:58;15.63;;;6.92;;
83282;SDS011;73190;50.780;5.658;2024-01-10T00:34:26;15.65;;;7.85;;
83282;SDS011;73190;50.780;5.658;2024-01-10T00:36:53;12.80;;;7.53;;
83282;SDS011;73190;50.780;5.658;2024-01-10T00:39:21;16.48;;;7.83;;
83282;SDS011;73190;50.780;5.658;2024-01-10T00:41:48;18.60;;;8.60;;
83282;SDS011;73190;50.780;5.658;2024-01-10T00:44:16;16.60;;;7.85;;
83282;SDS011;73190;50.780;5.658;2024-01-10T00:46:43;20.72;;;7.92;;
83282;SDS011;73190;50.780;5.658;2024-01-10T00:49:11;20.12;;;7.65;;
83282;SDS011;73190;50.780;5.658;2024-01-10T00:51:38;17.82;;;8.03;;
83282;SDS011;73190;50.780;5.658;2024-01-10T00:54:06;13.35;;;6.62;;
83282;SDS011;73190;50.780;5.658;2024-01-10T00:56:33;15.10;;;6.45;;
83282;SDS011;73190;50.780;5.658;2024-01-10T00:59:01;15.43;;;7.90;;
83282;SDS011;73190;50.780;5.658;2024-01-10T01:01:28;14.53;;;7.55;;
83282;SDS011;73190;50.780;5.658;2024-01-10T01:03:56;14.83;;;6.55;;
83282;SDS011;73190;50.780;5.658;2024-01-10T01:06:23;13.88;;;6.60;;
83282;SDS011;73190;50.780;5.658;2024-01-10T01:08:51;14.73;;;6.75;;
83282;SDS011;73190;50.780;5.658;2024-01-10T01:11:19;14.30;;;6.75;;
83282;SDS011;73190;50.780;5.658;2024-01-10T01:13:46;13.35;;;7.05;;
83282;SDS011;73190;50.780;5.658;2024-01-10T01:16:15;15.72;;;6.72;;
83282;SDS011;73190;50.780;5.658;2024-01-10T01:18:42;11.12;;;6.50;;
83282;SDS011;73190;50.780;5.658;2024-01-10T01:21:11;17.30;;;8.00;;
83282;SDS011;73190;50.780;5.658;2024-01-10T01:23:38;13.28;;;6.72;;
83282;SDS011;73190;50.780;5.658;2024-01-10T01:26:06;15.63;;;6.72;;
83282;SDS011;73190;50.780;5.658;2024-01-10T01:28:34;15.03;;;7.37;;
83282;SDS011;73190;50.780;5.658;2024-01-10T01:31:02;15.85;;;6.67;;
83282;SDS011;73190;50.780;5.658;2024-01-10T01:33:30;16.20;;;6.92;;
83282;SDS011;73190;50.780;5.658;2024-01-10T01:35:57;12.28;;;6.15;;
83282;SDS011;73190;50.780;5.658;2024-01-10T01:38:25;14.30;;;7.25;;
83282;SDS011;73190;50.780;5.658;2024-01-10T01:40:52;14.63;;;7.12;;
83282;SDS011;73190;50.780;5.658;2024-01-10T01:43:20;14.50;;;6.60;;
83282;SDS011;73190;50.780;5.658;2024-01-10T01:45:55;15.10;;;7.40;;
83282;SDS011;73190;50.780;5.658;2024-01-10T01:48:20;14.75;;;6.80;;
83282;SDS011;73190;50.780;5.658;2024-01-10T01:50:50;13.28;;;6.83;;
83282;SDS011;73190;50.780;5.658;2024-01-10T01:53:19;14.45;;;7.10;;
83282;SDS011;73190;50.780;5.658;2024-01-10T01:55:48;14.63;;;6.80;;
83282;SDS011;73190;50.780;5.658;2024-01-10T01:58:16;14.98;;;7.58;;
83282;SDS011;73190;50.780;5.658;2024-01-10T02:00:44;23.90;;;12.45;;
83282;SDS011;73190;50.780;5.658;2024-01-10T02:03:11;24.90;;;13.28;;
83282;SDS011;73190;50.780;5.658;2024-01-10T02:05:39;20.00;;;10.28;;
83282;SDS011;73190;50.780;5.658;2024-01-10T02:08:07;16.52;;;8.50;;
83282;SDS011;73190;50.780;5.658;2024-01-10T02:10:35;16.67;;;8.58;;
83282;SDS011;73190;50.780;5.658;2024-01-10T02:13:03;26.65;;;13.72;;
83282;SDS011;73190;50.780;5.658;2024-01-10T02:15:30;30.37;;;14.90;;
83282;SDS011;73190;50.780;5.658;2024-01-10T02:17:58;33.13;;;16.17;;
83282;SDS011;73190;50.780;5.658;2024-01-10T02:20:25;23.85;;;12.20;;
83282;SDS011;73190;50.780;5.658;2024-01-10T02:22:53;16.97;;;8.88;;
83282;SDS011;73190;50.780;5.658;2024-01-10T02:25:21;22.07;;;12.37;;
83282;SDS011;73190;50.780;5.658;2024-01-10T02:27:48;21.62;;;11.60;;
83282;SDS011;73190;50.780;5.658;2024-01-10T02:30:16;38.25;;;20.08;;
83282;SDS011;73190;50.780;5.658;2024-01-10T02:32:43;38.58;;;19.73;;
83282;SDS011;73190;50.780;5.658;2024-01-10T02:35:11;30.82;;;17.05;;
83282;SDS011;73190;50.780;5.658;2024-01-10T02:37:38;21.42;;;11.33;;
83282;SDS011;73190;50.780;5.658;2024-01-10T02:40:06;22.55;;;11.57;;
83282;SDS011;73190;50.780;5.658;2024-01-10T02:42:34;16.50;;;7.28;;
83282;SDS011;73190;50.780;5.658;2024-01-10T02:45:02;13.25;;;7.67;;
83282;SDS011;73190;50.780;5.658;2024-01-10T02:47:30;13.48;;;7.00;;
83282;SDS011;73190;50.780;5.658;2024-01-10T02:49:58;15.13;;;6.85;;
83282;SDS011;73190;50.780;5.658;2024-01-10T02:52:25;12.07;;;6.33;;
83282;SDS011;73190;50.780;5.658;2024-01-10T02:54:53;13.60;;;6.85;;
83282;SDS011;73190;50.780;5.658;2024-01-10T02:57:20;11.85;;;6.67;;
83282;SDS011;73190;50.780;5.658;2024-01-10T02:59:48;13.50;;;6.92;;
83282;SDS011;73190;50.780;5.658;2024-01-10T03:02:16;15.58;;;7.40;;
83282;SDS011;73190;50.780;5.658;2024-01-10T03:04:43;14.05;;;7.20;;
83282;SDS011;73190;50.780;5.658;2024-01-10T03:07:11;14.68;;;6.97;;
83282;SDS011;73190;50.780;5.658;2024-01-10T03:09:38;25.57;;;13.10;;
83282;SDS011;73190;50.780;5.658;2024-01-10T03:12:06;15.05;;;7.25;;
83282;SDS011;73190;50.780;5.658;2024-01-10T03:14:33;39.88;;;20.92;;
83282;SDS011;73190;50.780;5.658;2024-01-10T03:17:01;30.62;;;15.00;;
83282;SDS011;73190;50.780;5.658;2024-01-10T03:19:29;22.02;;;10.03;;
83282;SDS011;73190;50.780;5.658;2024-01-10T03:21:56;23.35;;;10.88;;
83282;SDS011;73190;50.780;5.658;2024-01-10T03:24:24;35.60;;;18.27;;
83282;SDS011;73190;50.780;5.658;2024-01-10T03:26:52;27.37;;;14.60;;
83282;SDS011;73190;50.780;5.658;2024-01-10T03:29:20;31.48;;;16.52;;
83282;SDS011;73190;50.780;5.658;2024-01-10T03:31:48;76.75;;;30.92;;
83282;SDS011;73190;50.780;5.658;2024-01-10T03:34:15;33.13;;;14.78;;
83282;SDS011;73190;50.780;5.658;2024-01-10T03:36:43;18.77;;;9.50;;
83282;SDS011;73190;50.780;5.658;2024-01-10T03:39:11;17.35;;;8.15;;
83282;SDS011;73190;50.780;5.658;2024-01-10T03:41:39;18.70;;;8.88;;
83282;SDS011;73190;50.780;5.658;2024-01-10T03:44:06;17.05;;;7.35;;
83282;SDS011;73190;50.780;5.658;2024-01-10T03:46:34;13.08;;;6.67;;
83282;SDS011;73190;50.780;5.658;2024-01-10T03:49:02;15.83;;;6.62;;
83282;SDS011;73190;50.780;5.658;2024-01-10T03:51:29;14.28;;;7.25;;
83282;SDS011;73190;50.780;5.658;2024-01-10T03:53:57;12.60;;;6.80;;
83282;SDS011;73190;50.780;5.658;2024-01-10T03:56:24;23.67;;;10.60;;
83282;SDS011;73190;50.780;5.658;2024-01-10T03:58:52;18.70;;;9.23;;
83282;SDS011;73190;50.780;5.658;2024-01-10T04:01:21;23.67;;;10.90;;
83282;SDS011;73190;50.780;5.658;2024-01-10T04:03:49;22.37;;;10.05;;
83282;SDS011;73190;50.780;5.658;2024-01-10T04:06:17;15.85;;;7.53;;
83282;SDS011;73190;50.780;5.658;2024-01-10T04:08:44;15.88;;;7.25;;
83282;SDS011;73190;50.780;5.658;2024-01-10T04:11:12;16.40;;;7.85;;
83282;SDS011;73190;50.780;5.658;2024-01-10T04:13:40;17.32;;;7.15;;
83282;SDS011;73190;50.780;5.658;2024-01-10T04:16:07;18.45;;;7.35;;
83282;SDS011;73190;50.780;5.658;2024-01-10T04:18:35;15.10;;;7.22;;
83282;SDS011;73190;50.780;5.658;2024-01-10T04:21:02;14.78;;;6.67;;
83282;SDS011;73190;50.780;5.658;2024-01-10T04:23:30;14.55;;;7.28;;
83282;SDS011;73190;50.780;5.658;2024-01-10T04:26:00;14.00;;;8.20;;
83282;SDS011;73190;50.780;5.658;2024-01-10T04:28:29;13.68;;;6.80;;
83282;SDS011;73190;50.780;5.658;2024-01-10T04:30:56;13.78;;;6.40;;
83282;SDS011;73190;50.780;5.658;2024-01-10T04:33:24;16.80;;;7.28;;
83282;SDS011;73190;50.780;5.658;2024-01-10T04:35:51;12.55;;;6.37;;
83282;SDS011;73190;50.780;5.658;2024-01-10T04:38:19;14.30;;;7.08;;
83282;SDS011;73190;50.780;5.658;2024-01-10T04:40:46;13.13;;;6.92;;
83282;SDS011;73190;50.780;5.658;2024-01-10T04:43:14;14.90;;;7.00;;
83282;SDS011;73190;50.780;5.658;2024-01-10T04:45:41;18.12;;;7.87;;
83282;SDS011;73190;50.780;5.658;2024-01-10T04:48:09;16.67;;;7.58;;
83282;SDS011;73190;50.780;5.658;2024-01-10T04:50:36;15.88;;;7.37;;
83282;SDS011;73190;50.780;5.658;2024-01-10T04:53:04;20.20;;;7.60;;
83282;SDS011;73190;50.780;5.658;2024-01-10T04:55:31;22.02;;;8.98;;
83282;SDS011;73190;50.780;5.658;2024-01-10T04:57:59;23.35;;;10.10;;
83282;SDS011;73190;50.780;5.658;2024-01-10T05:00:27;16.12;;;7.78;;
83282;SDS011;73190;50.780;5.658;2024-01-10T05:02:54;15.08;;;7.83;;
83282;SDS011;73190;50.780;5.658;2024-01-10T05:05:23;12.63;;;6.78;;
83282;SDS011;73190;50.780;5.658;2024-01-10T05:07:51;16.00;;;7.80;;
83282;SDS011;73190;50.780;5.658;2024-01-10T05:10:18;13.85;;;7.22;;
83282;SDS011;73190;50.780;5.658;2024-01-10T05:12:46;18.27;;;8.00;;
83282;SDS011;73190;50.780;5.658;2024-01-10T05:15:14;19.40;;;8.20;;
83282;SDS011;73190;50.780;5.658;2024-01-10T05:17:41;15.93;;;7.65;;
83282;SDS011;73190;50.780;5.658;2024-01-10T05:20:09;13.83;;;7.08;;
83282;SDS011;73190;50.780;5.658;2024-01-10T05:22:37;17.82;;;8.18;;
83282;SDS011;73190;50.780;5.658;2024-01-10T05:25:04;18.10;;;7.55;;
83282;SDS011;73190;50.780;5.658;2024-01-10T05:27:32;14.78;;;7.25;;
83282;SDS011;73190;50.780;5.658;2024-01-10T05:30:00;16.40;;;7.37;;
83282;SDS011;73190;50.780;5.658;2024-01-10T05:32:27;16.23;;;7.65;;
83282;SDS011;73190;50.780;5.658;2024-01-10T05:34:55;16.97;;;7.00;;
83282;SDS011;73190;50.780;5.658;2024-01-10T05:37:22;16.95;;;7.90;;
83282;SDS011;73190;50.780;5.658;2024-01-10T05:39:50;14.78;;;7.03;;
83282;SDS011;73190;50.780;5.658;2024-01-10T05:42:17;15.53;;;7.87;;
83282;SDS011;73190;50.780;5.658;2024-01-10T05:44:45;15.75;;;7.62;;
83282;SDS011;73190;50.780;5.658;2024-01-10T05:47:13;16.93;;;7.37;;
83282;SDS011;73190;50.780;5.658;2024-01-10T05:49:40;15.72;;;6.80;;
83282;SDS011;73190;50.780;5.658;2024-01-10T05:52:08;15.18;;;7.30;;
83282;SDS011;73190;50.780;5.658;2024-01-10T05:54:35;16.60;;;7.40;;
83282;SDS011;73190;50.780;5.658;2024-01-10T05:57:03;12.43;;;7.40;;
83282;SDS011;73190;50.780;5.658;2024-01-10T05:59:31;15.00;;;7.15;;
83282;SDS011;73190;50.780;5.658;2024-01-10T06:01:58;15.38;;;6.70;;
83282;SDS011;73190;50.780;5.658;2024-01-10T06:04:26;17.27;;;7.42;;
83282;SDS011;73190;50.780;5.658;2024-01-10T06:06:55;17.00;;;7.05;;
83282;SDS011;73190;50.780;5.658;2024-01-10T06:09:26;17.75;;;7.35;;
83282;SDS011;73190;50.780;5.658;2024-01-10T06:11:54;14.75;;;8.68;;
83282;SDS011;73190;50.780;5.658;2024-01-10T06:14:22;20.57;;;7.50;;
83282;SDS011;73190;50.780;5.658;2024-01-10T06:16:49;17.55;;;8.20;;
83282;SDS011;73190;50.780;5.658;2024-01-10T06:19:17;20.30;;;8.43;;
83282;SDS011;73190;50.780;5.658;2024-01-10T06:21:44;15.25;;;8.13;;
83282;SDS011;73190;50.780;5.658;2024-01-10T06:24:12;19.23;;;7.90;;
83282;SDS011;73190;50.780;5.658;2024-01-10T06:26:39;20.35;;;7.87;;
83282;SDS011;73190;50.780;5.658;2024-01-10T06:29:07;14.85;;;7.25;;
83282;SDS011;73190;50.780;5.658;2024-01-10T06:31:34;13.10;;;7.10;;
83282;SDS011;73190;50.780;5.658;2024-01-10T06:34:02;17.23;;;7.37;;
83282;SDS011;73190;50.780;5.658;2024-01-10T06:36:29;39.03;;;17.77;;
83282;SDS011;73190;50.780;5.658;2024-01-10T06:38:57;42.33;;;19.35;;
83282;SDS011;73190;50.780;5.658;2024-01-10T06:41:24;22.32;;;9.63;;
83282;SDS011;73190;50.780;5.658;2024-01-10T06:43:52;29.45;;;13.40;;
83282;SDS011;73190;50.780;5.658;2024-01-10T06:46:20;108.67;;;39.35;;
83282;SDS011;73190;50.780;5.658;2024-01-10T06:48:48;105.15;;;37.93;;
83282;SDS011;73190;50.780;5.658;2024-01-10T06:51:16;53.48;;;22.02;;
83282;SDS011;73190;50.780;5.658;2024-01-10T06:53:43;50.45;;;19.20;;
83282;SDS011;73190;50.780;5.658;2024-01-10T06:56:11;25.90;;;11.12;;
83282;SDS011;73190;50.780;5.658;2024-01-10T06:58:39;95.50;;;31.82;;
83282;SDS011;73190;50.780;5.658;2024-01-10T07:01:13;37.53;;;17.02;;
83282;SDS011;73190;50.780;5.658;2024-01-10T07:03:41;19.17;;;10.28;;
83282;SDS011;73190;50.780;5.658;2024-01-10T07:06:10;17.23;;;8.35;;
83282;SDS011;73190;50.780;5.658;2024-01-10T07:08:39;17.85;;;9.30;;
83282;SDS011;73190;50.780;5.658;2024-01-10T07:11:08;22.30;;;7.78;;
83282;SDS011;73190;50.780;5.658;2024-01-10T07:13:37;21.10;;;7.70;;
83282;SDS011;73190;50.780;5.658;2024-01-10T07:16:05;15.38;;;7.22;;
83282;SDS011;73190;50.780;5.658;2024-01-10T07:18:33;16.30;;;8.20;;
83282;SDS011;73190;50.780;5.658;2024-01-10T07:21:00;54.38;;;26.40;;
83282;SDS011;73190;50.780;5.658;2024-01-10T07:23:28;29.82;;;16.17;;
83282;SDS011;73190;50.780;5.658;2024-01-10T07:25:57;37.93;;;17.55;;
83282;SDS011;73190;50.780;5.658;2024-01-10T07:28:25;52.40;;;21.33;;
83282;SDS011;73190;50.780;5.658;2024-01-10T07:30:52;35.70;;;18.35;;
83282;SDS011;73190;50.780;5.658;2024-01-10T07:33:20;58.42;;;22.25;;
83282;SDS011;73190;50.780;5.658;2024-01-10T07:35:48;49.35;;;21.05;;
83282;SDS011;73190;50.780;5.658;2024-01-10T07:38:15;42.53;;;16.35;;
83282;SDS011;73190;50.780;5.658;2024-01-10T07:40:43;28.52;;;12.90;;
83282;SDS011;73190;50.780;5.658;2024-01-10T07:43:10;21.23;;;9.93;;
83282;SDS011;73190;50.780;5.658;2024-01-10T07:45:38;30.62;;;11.25;;
83282;SDS011;73190;50.780;5.658;2024-01-10T07:48:06;39.33;;;18.60;;
83282;SDS011;73190;50.780;5.658;2024-01-10T07:50:33;27.93;;;14.43;;
83282;SDS011;73190;50.780;5.658;2024-01-10T07:53:01;35.95;;;15.43;;
83282;SDS011;73190;50.780;5.658;2024-01-10T07:55:28;35.35;;;16.55;;
83282;SDS011;73190;50.780;5.658;2024-01-10T07:57:56;33.67;;;14.05;;
83282;SDS011;73190;50.780;5.658;2024-01-10T08:00:24;32.93;;;14.30;;
83282;SDS011;73190;50.780;5.658;2024-01-10T08:02:51;29.60;;;13.78;;
83282;SDS011;73190;50.780;5.658;2024-01-10T08:05:19;37.60;;;15.18;;
83282;SDS011;73190;50.780;5.658;2024-01-10T08:07:47;23.45;;;10.90;;
83282;SDS011;73190;50.780;5.658;2024-01-10T08:10:14;22.55;;;11.45;;
83282;SDS011;73190;50.780;5.658;2024-01-10T08:12:42;20.97;;;10.20;;
83282;SDS011;73190;50.780;5.658;2024-01-10T08:15:10;20.70;;;9.63;;
83282;SDS011;73190;50.780;5.658;2024-01-10T08:17:37;30.80;;;10.05;;
83282;SDS011;73190;50.780;5.658;2024-01-10T08:20:05;30.92;;;11.60;;
83282;SDS011;73190;50.780;5.658;2024-01-10T08:22:36;25.37;;;10.82;;
83282;SDS011;73190;50.780;5.658;2024-01-10T08:25:04;26.27;;;11.00;;
83282;SDS011;73190;50.780;5.658;2024-01-10T08:27:33;25.67;;;11.20;;
83282;SDS011;73190;50.780;5.658;2024-01-10T08:30:00;96.90;;;20.45;;
83282;SDS011;73190;50.780;5.658;2024-01-10T08:32:30;41.45;;;14.30;;
83282;SDS011;73190;50.780;5.658;2024-01-10T08:34:58;34.10;;;15.08;;
83282;SDS011;73190;50.780;5.658;2024-01-10T08:37:25;29.27;;;12.45;;
83282;SDS011;73190;50.780;5.658;2024-01-10T08:39:53;39.50;;;14.35;;
83282;SDS011;73190;50.780;5.658;2024-01-10T08:42:20;25.17;;;11.68;;
83282;SDS011;73190;50.780;5.658;2024-01-10T08:44:48;49.60;;;21.90;;
83282;SDS011;73190;50.780;5.658;2024-01-10T08:47:15;26.50;;;11.90;;
83282;SDS011;73190;50.780;5.658;2024-01-10T08:49:43;29.32;;;10.30;;
83282;SDS011;73190;50.780;5.658;2024-01-10T08:52:10;21.65;;;10.28;;
83282;SDS011;73190;50.780;5.658;2024-01-10T08:54:39;16.23;;;8.57;;
83282;SDS011;73190;50.780;5.658;2024-01-10T08:57:07;20.75;;;9.83;;
83282;SDS011;73190;50.780;5.658;2024-01-10T08:59:35;32.35;;;12.47;;
83282;SDS011;73190;50.780;5.658;2024-01-10T09:02:03;29.27;;;15.40;;
83282;SDS011;73190;50.780;5.658;2024-01-10T09:04:30;29.57;;;15.00;;
83282;SDS011;73190;50.780;5.658;2024-01-10T09:06:58;31.55;;;15.88;;
83282;SDS011;73190;50.780;5.658;2024-01-10T09:09:26;25.35;;;12.50;;
83282;SDS011;73190;50.780;5.658;2024-01-10T09:11:53;24.00;;;11.28;;
83282;SDS011;73190;50.780;5.658;2024-01-10T09:14:22;22.85;;;11.88;;
83282;SDS011;73190;50.780;5.658;2024-01-10T09:16:49;38.83;;;20.05;;
83282;SDS011;73190;50.780;5.658;2024-01-10T09:19:18;27.77;;;11.75;;
83282;SDS011;73190;50.780;5.658;2024-01-10T09:21:45;21.77;;;11.97;;
83282;SDS011;73190;50.780;5.658;2024-01-10T09:24:14;47.13;;;20.77;;
83282;SDS011;73190;50.780;5.658;2024-01-10T09:26:42;35.13;;;17.05;;
83282;SDS011;73190;50.780;5.658;2024-01-10T09:29:10;49.70;;;23.57;;
83282;SDS011;73190;50.780;5.658;2024-01-10T09:31:38;63.08;;;33.02;;
83282;SDS011;73190;50.780;5.658;2024-01-10T09:34:05;61.42;;;31.05;;
83282;SDS011;73190;50.780;5.658;2024-01-10T09:36:33;48.05;;;27.13;;
83282;SDS011;73190;50.780;5.658;2024-01-10T09:39:00;38.67;;;22.27;;
83282;SDS011;73190;50.780;5.658;2024-01-10T09:41:29;29.63;;;18.07;;
83282;SDS011;73190;50.780;5.658;2024-01-10T09:44:00;37.98;;;15.13;;
83282;SDS011;73190;50.780;5.658;2024-01-10T09:46:28;25.55;;;12.63;;
83282;SDS011;73190;50.780;5.658;2024-01-10T09:48:58;26.12;;;12.18;;
83282;SDS011;73190;50.780;5.658;2024-01-10T09:51:26;31.40;;;12.73;;
83282;SDS011;73190;50.780;5.658;2024-01-10T09:53:56;21.40;;;10.72;;
83282;SDS011;73190;50.780;5.658;2024-01-10T09:56:25;27.93;;;14.10;;
83282;SDS011;73190;50.780;5.658;2024-01-10T09:58:53;26.85;;;13.10;;
83282;SDS011;73190;50.780;5.658;2024-01-10T10:01:24;30.70;;;15.38;;
83282;SDS011;73190;50.780;5.658;2024-01-10T10:03:52;23.38;;;11.00;;
83282;SDS011;73190;50.780;5.658;2024-01-10T10:06:22;25.52;;;13.45;;
83282;SDS011;73190;50.780;5.658;2024-01-10T10:08:49;30.97;;;16.82;;
83282;SDS011;73190;50.780;5.658;2024-01-10T10:11:17;27.42;;;13.62;;
83282;SDS011;73190;50.780;5.658;2024-01-10T10:13:45;25.72;;;13.40;;
83282;SDS011;73190;50.780;5.658;2024-01-10T10:16:12;26.65;;;12.95;;
83282;SDS011;73190;50.780;5.658;2024-01-10T10:18:40;26.77;;;12.95;;
83282;SDS011;73190;50.780;5.658;2024-01-10T10:21:12;24.27;;;12.47;;
83282;SDS011;73190;50.780;5.658;2024-01-10T10:23:41;24.67;;;11.50;;
83282;SDS011;73190;50.780;5.658;2024-01-10T10:26:11;24.12;;;12.03;;
83282;SDS011;73190;50.780;5.658;2024-01-10T10:28:42;23.83;;;12.00;;
83282;SDS011;73190;50.780;5.658;2024-01-10T10:31:10;25.30;;;13.48;;
83282;SDS011;73190;50.780;5.658;2024-01-10T10:33:37;24.12;;;12.70;;
83282;SDS011;73190;50.780;5.658;2024-01-10T10:36:06;25.27;;;14.73;;
83282;SDS011;73190;50.780;5.658;2024-01-10T10:38:34;27.05;;;14.07;;
83282;SDS011;73190;50.780;5.658;2024-01-10T10:41:05;26.50;;;13.13;;
83282;SDS011;73190;50.780;5.658;2024-01-10T10:43:37;19.30;;;10.65;;
83282;SDS011;73190;50.780;5.658;2024-01-10T10:46:11;21.40;;;10.68;;
83282;SDS011;73190;50.780;5.658;2024-01-10T10:48:38;19.15;;;10.50;;
83282;SDS011;73190;50.780;5.658;2024-01-10T10:51:09;23.20;;;10.55;;
83282;SDS011;73190;50.780;5.658;2024-01-10T10:53:39;22.07;;;11.03;;
83282;SDS011;73190;50.780;5.658;2024-01-10T10:56:09;18.40;;;10.32;;
83282;SDS011;73190;50.780;5.658;2024-01-10T10:58:39;20.80;;;11.03;;
83282;SDS011;73190;50.780;5.658;2024-01-10T11:01:08;47.83;;;21.62;;
83282;SDS011;73190;50.780;5.658;2024-01-10T11:03:40;24.45;;;12.68;;
83282;SDS011;73190;50.780;5.658;2024-01-10T11:06:12;41.68;;;18.27;;
83282;SDS011;73190;50.780;5.658;2024-01-10T11:08:42;35.15;;;15.98;;
83282;SDS011;73190;50.780;5.658;2024-01-10T11:11:21;54.95;;;29.32;;
83282;SDS011;73190;50.780;5.658;2024-01-10T11:14:19;30.25;;;15.45;;
83282;SDS011;73190;50.780;5.658;2024-01-10T11:26:03;27.77;;;13.78;;
83282;SDS011;73190;50.780;5.658;2024-01-10T11:28:31;30.23;;;12.68;;
83282;SDS011;73190;50.780;5.658;2024-01-10T11:30:59;23.20;;;11.75;;
83282;SDS011;73190;50.780;5.658;2024-01-10T11:33:32;27.45;;;11.43;;
83282;SDS011;73190;50.780;5.658;2024-01-10T11:36:06;21.85;;;11.40;;
83282;SDS011;73190;50.780;5.658;2024-01-10T11:38:53;25.72;;;11.75;;
83282;SDS011;73190;50.780;5.658;2024-01-10T11:46:42;20.40;;;11.97;;
83282;SDS011;73190;50.780;5.658;2024-01-10T11:49:15;21.45;;;11.83;;
83282;SDS011;73190;50.780;5.658;2024-01-10T11:51:50;22.90;;;12.50;;
83282;SDS011;73190;50.780;5.658;2024-01-10T11:57:02;27.98;;;16.32;;
83282;SDS011;73190;50.780;5.658;2024-01-10T11:59:32;29.72;;;17.48;;
83282;SDS011;73190;50.780;5.658;2024-01-10T12:02:01;34.40;;;19.20;;
83282;SDS011;73190;50.780;5.658;2024-01-10T12:04:31;36.15;;;20.40;;
83282;SDS011;73190;50.780;5.658;2024-01-10T12:06:58;34.70;;;18.32;;
83282;SDS011;73190;50.780;5.658;2024-01-10T12:09:28;30.32;;;17.60;;
83282;SDS011;73190;50.780;5.658;2024-01-10T12:11:56;28.40;;;16.35;;
83282;SDS011;73190;50.780;5.658;2024-01-10T12:14:23;30.25;;;17.87;;
83282;SDS011;73190;50.780;5.658;2024-01-10T12:16:51;31.23;;;14.43;;
83282;SDS011;73190;50.780;5.658;2024-01-10T12:19:19;26.20;;;15.10;;
83282;SDS011;73190;50.780;5.658;2024-01-10T12:21:46;27.30;;;13.30;;
83282;SDS011;73190;50.780;5.658;2024-01-10T12:24:15;28.38;;;14.45;;
83282;SDS011;73190;50.780;5.658;2024-01-10T12:26:46;91.53;;;40.95;;
83282;SDS011;73190;50.780;5.658;2024-01-10T12:29:17;27.07;;;14.87;;
83282;SDS011;73190;50.780;5.658;2024-01-10T12:31:48;35.25;;;17.73;;
83282;SDS011;73190;50.780;5.658;2024-01-10T12:34:16;35.80;;;18.12;;
83282;SDS011;73190;50.780;5.658;2024-01-10T12:36:44;30.23;;;15.93;;
83282;SDS011;73190;50.780;5.658;2024-01-10T12:39:12;26.37;;;16.00;;
83282;SDS011;73190;50.780;5.658;2024-01-10T12:41:41;27.55;;;16.80;;
83282;SDS011;73190;50.780;5.658;2024-01-10T12:44:10;21.85;;;13.60;;
83282;SDS011;73190;50.780;5.658;2024-01-10T12:46:48;28.02;;;14.47;;
83282;SDS011;73190;50.780;5.658;2024-01-10T12:49:17;25.77;;;16.60;;
83282;SDS011;73190;50.780;5.658;2024-01-10T12:51:46;25.92;;;15.15;;
83282;SDS011;73190;50.780;5.658;2024-01-10T12:54:14;26.07;;;13.88;;
83282;SDS011;73190;50.780;5.658;2024-01-10T12:56:44;22.10;;;12.85;;
83282;SDS011;73190;50.780;5.658;2024-01-10T12:59:11;25.65;;;14.60;;
83282;SDS011;73190;50.780;5.658;2024-01-10T13:01:39;24.80;;;15.80;;
83282;SDS011;73190;50.780;5.658;2024-01-10T13:04:07;22.48;;;13.68;;
83282;SDS011;73190;50.780;5.658;2024-01-10T13:06:37;20.92;;;13.03;;
83282;SDS011;73190;50.780;5.658;2024-01-10T13:09:06;22.55;;;13.88;;
83282;SDS011;73190;50.780;5.658;2024-01-10T13:11:35;22.45;;;14.00;;
83282;SDS011;73190;50.780;5.658;2024-01-10T13:14:02;23.73;;;13.20;;
83282;SDS011;73190;50.780;5.658;2024-01-10T13:16:30;23.42;;;14.25;;
83282;SDS011;73190;50.780;5.658;2024-01-10T13:18:59;25.50;;;14.58;;
83282;SDS011;73190;50.780;5.658;2024-01-10T13:21:27;24.92;;;14.10;;
83282;SDS011;73190;50.780;5.658;2024-01-10T13:23:54;23.70;;;13.90;;
83282;SDS011;73190;50.780;5.658;2024-01-10T13:26:22;24.25;;;14.45;;
83282;SDS011;73190;50.780;5.658;2024-01-10T13:28:49;28.52;;;17.07;;
83282;SDS011;73190;50.780;5.658;2024-01-10T13:31:17;28.70;;;17.48;;
83282;SDS011;73190;50.780;5.658;2024-01-10T13:33:45;23.62;;;14.93;;
83282;SDS011;73190;50.780;5.658;2024-01-10T13:36:13;22.85;;;14.45;;
83282;SDS011;73190;50.780;5.658;2024-01-10T13:38:40;32.53;;;19.02;;
83282;SDS011;73190;50.780;5.658;2024-01-10T13:41:08;48.80;;;25.70;;
83282;SDS011;73190;50.780;5.658;2024-01-10T13:43:35;47.40;;;24.57;;
83282;SDS011;73190;50.780;5.658;2024-01-10T13:46:03;38.38;;;21.37;;
83282;SDS011;73190;50.780;5.658;2024-01-10T13:48:31;23.47;;;15.98;;
83282;SDS011;73190;50.780;5.658;2024-01-10T13:50:58;25.10;;;16.23;;
83282;SDS011;73190;50.780;5.658;2024-01-10T13:53:26;23.70;;;14.98;;
83282;SDS011;73190;50.780;5.658;2024-01-10T13:55:53;25.23;;;14.78;;
83282;SDS011;73190;50.780;5.658;2024-01-10T13:58:21;23.67;;;13.95;;
83282;SDS011;73190;50.780;5.658;2024-01-10T14:00:49;23.73;;;14.00;;
83282;SDS011;73190;50.780;5.658;2024-01-10T14:03:17;27.98;;;13.50;;
83282;SDS011;73190;50.780;5.658;2024-01-10T14:05:44;23.38;;;14.10;;
83282;SDS011;73190;50.780;5.658;2024-01-10T14:08:12;31.20;;;16.90;;
83282;SDS011;73190;50.780;5.658;2024-01-10T14:10:39;25.62;;;14.95;;
83282;SDS011;73190;50.780;5.658;2024-01-10T14:13:07;29.82;;;17.37;;
83282;SDS011;73190;50.780;5.658;2024-01-10T14:15:35;32.48;;;17.42;;
83282;SDS011;73190;50.780;5.658;2024-01-10T14:18:03;26.23;;;14.80;;
83282;SDS011;73190;50.780;5.658;2024-01-10T14:20:30;28.75;;;15.72;;
83282;SDS011;73190;50.780;5.658;2024-01-10T14:22:58;25.77;;;15.15;;
83282;SDS011;73190;50.780;5.658;2024-01-10T14:25:26;29.27;;;16.70;;
83282;SDS011;73190;50.780;5.658;2024-01-10T14:27:54;30.25;;;16.48;;
83282;SDS011;73190;50.780;5.658;2024-01-10T14:30:23;29.65;;;16.15;;
83282;SDS011;73190;50.780;5.658;2024-01-10T14:32:51;31.15;;;15.08;;
83282;SDS011;73190;50.780;5.658;2024-01-10T14:35:19;32.98;;;16.25;;
83282;SDS011;73190;50.780;5.658;2024-01-10T14:37:46;36.38;;;15.88;;
83282;SDS011;73190;50.780;5.658;2024-01-10T14:40:14;30.97;;;15.83;;
83282;SDS011;73190;50.780;5.658;2024-01-10T14:42:42;27.17;;;14.43;;
83282;SDS011;73190;50.780;5.658;2024-01-10T14:45:09;34.92;;;17.10;;
83282;SDS011;73190;50.780;5.658;2024-01-10T14:47:37;48.83;;;23.05;;
83282;SDS011;73190;50.780;5.658;2024-01-10T14:50:05;53.90;;;24.90;;